Time;durP1;ratioP1;P1;durP2;ratioP2;P2;SDS_P1;SDS_P2;PMS_P1;PMS_P2;Temp;Humidity;BMP_temperature;BMP_pressure;BME280_temperature;BME280_humidity;BME280_pressure;Samples;Min_cycle;Max_cycle;Signal;HPM_P1;HPM_P2
2022/08/21 00:00:40;;;;;;;;;;;15.00;99.90;;;;;;5073417;28;19915;-64
2022/08/21 00:03:06;;;;;;;;;;;15.00;99.90;;;;;;5074443;28;19940;-64
2022/08/21 00:05:35;;;;;;;;;;;15.00;99.90;;;;;;5076775;28;20025;-64
2022/08/21 00:08:01;;;;;;;;;;;15.00;99.90;;;;;;5058887;28;19908;-64
2022/08/21 00:10:26;;;;;;;;;;;15.10;99.90;;;;;;5076955;28;19908;-64
2022/08/21 00:12:52;;;;;;;;;;;15.20;99.90;;;;;;5076759;28;20006;-64
2022/08/21 00:15:20;;;;;;;;;;;15.30;99.90;;;;;;5076678;28;20002;-65
2022/08/21 00:17:45;;;;;;;;;;;15.30;99.90;;;;;;5076740;28;19927;-64
2022/08/21 00:20:12;;;;;;;;;;;15.30;99.90;;;;;;5076567;28;20015;-64
2022/08/21 00:22:37;;;;;;;;;;;15.30;99.90;;;;;;5076494;28;19909;-64
2022/08/21 00:25:04;;;;;;;;;;;15.20;99.90;;;;;;5076491;28;19957;-64
2022/08/21 00:27:30;;;;;;;;;;;15.20;99.90;;;;;;5076667;28;20269;-64
2022/08/21 00:29:55;;;;;;;;;;;15.00;99.90;;;;;;5076385;28;19908;-64
2022/08/21 00:32:23;;;;;;;;;;;14.90;99.90;;;;;;5076617;28;19909;-64
2022/08/21 00:34:48;;;;;;;;;;;14.80;99.90;;;;;;5076596;28;20286;-64
2022/08/21 00:37:14;;;;;;;;;;;14.70;99.90;;;;;;5076458;28;20011;-64
2022/08/21 00:39:39;;;;;;;;;;;14.70;99.90;;;;;;5076480;28;20003;-64
2022/08/21 00:42:05;;;;;;;;;;;14.70;99.90;;;;;;5076165;28;20286;-64
2022/08/21 00:44:30;;;;;;;;;;;14.60;99.90;;;;;;5076395;28;19908;-64
2022/08/21 00:46:56;;;;;;;;;;;14.60;99.90;;;;;;5076333;28;19909;-64
2022/08/21 00:49:22;;;;;;;;;;;14.60;99.90;;;;;;5076298;28;19915;-64
2022/08/21 00:51:50;;;;;;;;;;;14.60;99.90;;;;;;5075960;28;19909;-64
2022/08/21 00:54:17;;;;;;;;;;;14.50;99.90;;;;;;5075947;28;19908;-65
2022/08/21 00:56:42;;;;;;;;;;;14.60;99.90;;;;;;5075850;28;19920;-64
2022/08/21 00:59:08;;;;;;;;;;;14.50;99.90;;;;;;5075783;28;19908;-64
2022/08/21 01:01:33;;;;;;;;;;;14.50;99.90;;;;;;5076063;28;19908;-64
2022/08/21 01:03:59;;;;;;;;;;;14.50;99.90;;;;;;5076010;28;19997;-64
2022/08/21 01:06:24;;;;;;;;;;;14.60;99.90;;;;;;5075968;28;19919;-64
2022/08/21 01:08:50;;;;;;;;;;;14.60;99.90;;;;;;5075698;28;19908;-64
2022/08/21 01:11:16;;;;;;;;;;;14.60;99.90;;;;;;5075883;28;19915;-64
2022/08/21 01:13:45;;;;;;;;;;;14.70;99.90;;;;;;5057556;28;20363;-64
2022/08/21 01:16:12;;;;;;;;;;;14.70;99.90;;;;;;5075369;28;20408;-64
2022/08/21 01:18:37;;;;;;;;;;;14.80;99.90;;;;;;5075764;28;19958;-64
2022/08/21 01:21:05;;;;;;;;;;;14.80;99.90;;;;;;5075447;28;20348;-64
2022/08/21 01:23:31;;;;;;;;;;;14.90;99.90;;;;;;5075644;28;19913;-64
2022/08/21 01:25:57;;;;;;;;;;;14.90;99.90;;;;;;5075585;28;20252;-64
2022/08/21 01:28:22;;;;;;;;;;;14.90;99.90;;;;;;5075293;28;20323;-64
2022/08/21 01:30:48;;;;;;;;;;;15.00;99.90;;;;;;5075266;28;20012;-65
2022/08/21 01:33:13;;;;;;;;;;;15.00;99.90;;;;;;5075449;28;19909;-64
2022/08/21 01:35:39;;;;;;;;;;;15.10;99.90;;;;;;5075004;28;20007;-64
2022/08/21 01:38:05;;;;;;;;;;;15.00;99.90;;;;;;5075363;28;19912;-64
2022/08/21 01:40:30;;;;;;;;;;;15.10;99.90;;;;;;5075304;28;20408;-64
2022/08/21 01:42:56;;;;;;;;;;;15.20;99.90;;;;;;5075230;28;19908;-64
2022/08/21 01:45:21;;;;;;;;;;;15.20;99.90;;;;;;5075221;28;20385;-64
2022/08/21 01:47:47;;;;;;;;;;;15.20;99.90;;;;;;5075135;28;19936;-64
2022/08/21 01:50:15;;;;;;;;;;;15.20;99.90;;;;;;5075102;28;20367;-64
2022/08/21 01:52:40;;;;;;;;;;;15.30;99.90;;;;;;5075058;28;19939;-64
2022/08/21 01:55:07;;;;;;;;;;;15.30;99.90;;;;;;5074725;28;19955;-64
2022/08/21 01:57:33;;;;;;;;;;;15.40;99.90;;;;;;5074639;28;19913;-64
2022/08/21 01:59:58;;;;;;;;;;;15.40;99.90;;;;;;5074606;28;19916;-64
2022/08/21 02:02:24;;;;;;;;;;;15.50;99.90;;;;;;5074594;28;19908;-64
2022/08/21 02:04:49;;;;;;;;;;;15.50;99.90;;;;;;5074791;28;19908;-64
2022/08/21 02:07:15;;;;;;;;;;;15.60;99.90;;;;;;5074756;28;19920;-64
2022/08/21 02:09:42;;;;;;;;;;;15.60;99.90;;;;;;5074722;28;19909;-64
2022/08/21 02:12:08;;;;;;;;;;;15.70;99.90;;;;;;5074675;28;20279;-64
2022/08/21 02:14:34;;;;;;;;;;;15.80;99.90;;;;;;5074640;28;20336;-64
2022/08/21 02:17:00;;;;;;;;;;;15.80;99.90;;;;;;5074185;28;19999;-63
2022/08/21 02:19:25;;;;;;;;;;;15.90;99.90;;;;;;5074325;28;19909;-64
2022/08/21 02:21:51;;;;;;;;;;;15.90;99.90;;;;;;5074524;28;19954;-64
2022/08/21 02:24:16;;;;;;;;;;;15.90;99.90;;;;;;5074194;28;20445;-64
2022/08/21 02:26:42;;;;;;;;;;;15.90;99.90;;;;;;5073717;28;19912;-64
2022/08/21 02:29:07;;;;;;;;;;;15.90;99.90;;;;;;5074370;28;19916;-64
2022/08/21 02:31:33;;;;;;;;;;;15.90;99.90;;;;;;5074324;28;19908;-64
2022/08/21 02:33:59;;;;;;;;;;;15.90;99.90;;;;;;5074291;28;19908;-64
2022/08/21 02:36:25;;;;;;;;;;;15.80;99.90;;;;;;5074168;28;19916;-64
2022/08/21 02:38:51;;;;;;;;;;;15.80;99.90;;;;;;5074240;28;19908;-64
2022/08/21 02:41:18;;;;;;;;;;;15.80;99.90;;;;;;5073900;28;19916;-64
2022/08/21 02:43:44;;;;;;;;;;;15.70;99.90;;;;;;5074190;28;20014;-64
2022/08/21 02:46:11;;;;;;;;;;;15.60;99.90;;;;;;5074125;28;19993;-64
2022/08/21 02:48:37;;;;;;;;;;;15.50;99.90;;;;;;5074086;28;19915;-64
2022/08/21 02:51:04;;;;;;;;;;;15.40;99.90;;;;;;5074064;28;19908;-64
2022/08/21 02:53:30;;;;;;;;;;;15.40;99.90;;;;;;5074005;28;20341;-64
2022/08/21 02:55:57;;;;;;;;;;;15.40;99.90;;;;;;5073681;28;19913;-64
2022/08/21 02:58:24;;;;;;;;;;;15.40;99.90;;;;;;5073969;28;19954;-65
2022/08/21 03:00:51;;;;;;;;;;;15.40;99.90;;;;;;5055872;28;19908;-64
2022/08/21 03:03:16;;;;;;;;;;;15.40;99.90;;;;;;5073945;28;19909;-65
2022/08/21 03:05:42;;;;;;;;;;;15.40;99.90;;;;;;5073904;28;20378;-64
2022/08/21 03:08:10;;;;;;;;;;;15.30;99.90;;;;;;5073554;28;19962;-64
2022/08/21 03:10:36;;;;;;;;;;;15.30;99.90;;;;;;5073841;28;20275;-64
2022/08/21 03:13:03;;;;;;;;;;;15.30;99.90;;;;;;5073876;28;20339;-65
2022/08/21 03:15:28;;;;;;;;;;;15.30;99.90;;;;;;5073563;28;20283;-65
2022/08/21 03:17:54;;;;;;;;;;;15.20;99.90;;;;;;5073480;28;19920;-64
2022/08/21 03:20:21;;;;;;;;;;;15.20;99.90;;;;;;5073570;28;19908;-65
2022/08/21 03:22:47;;;;;;;;;;;15.20;99.90;;;;;;5073769;28;20374;-64
2022/08/21 03:25:12;;;;;;;;;;;15.10;99.90;;;;;;5073555;28;19916;-64
2022/08/21 03:27:38;;;;;;;;;;;15.00;99.90;;;;;;5073663;28;20436;-64
2022/08/21 03:30:05;;;;;;;;;;;15.00;99.90;;;;;;5073667;28;19939;-64
2022/08/21 03:32:31;;;;;;;;;;;14.90;99.90;;;;;;5073681;28;20278;-64
2022/08/21 03:34:57;;;;;;;;;;;14.80;99.90;;;;;;5073663;28;19908;-64
2022/08/21 03:37:23;;;;;;;;;;;14.70;99.90;;;;;;5073680;28;20359;-64
2022/08/21 03:39:49;;;;;;;;;;;14.70;99.90;;;;;;5077727;28;19931;-65
2022/08/21 03:42:14;;;;;;;;;;;14.60;99.90;;;;;;5059607;28;19917;-64
2022/08/21 03:44:40;;;;;;;;;;;14.50;99.90;;;;;;5077380;28;19991;-64
2022/08/21 03:47:05;;;;;;;;;;;14.50;99.90;;;;;;5077605;28;19908;-64
2022/08/21 03:49:31;;;;;;;;;;;14.40;99.90;;;;;;5077321;28;19914;-64
2022/08/21 03:51:57;;;;;;;;;;;14.30;99.90;;;;;;5077465;28;19908;-64
2022/08/21 03:54:22;;;;;;;;;;;14.30;99.90;;;;;;5077115;28;19908;-64
2022/08/21 03:56:48;;;;;;;;;;;14.30;99.90;;;;;;5059464;28;20038;-64
2022/08/21 03:59:13;;;;;;;;;;;14.20;99.90;;;;;;5077224;28;19909;-64
2022/08/21 04:01:39;;;;;;;;;;;14.20;99.90;;;;;;5076945;28;19909;-64
2022/08/21 04:04:04;;;;;;;;;;;14.10;99.90;;;;;;5077019;28;19912;-64
2022/08/21 04:06:30;;;;;;;;;;;14.10;99.90;;;;;;5077212;28;19908;-64
2022/08/21 04:08:55;;;;;;;;;;;14.10;99.90;;;;;;5077200;28;19916;-64
2022/08/21 04:11:21;;;;;;;;;;;14.00;99.90;;;;;;5077372;28;19915;-64
2022/08/21 04:13:47;;;;;;;;;;;14.00;99.90;;;;;;5077049;28;19908;-64
2022/08/21 04:16:13;;;;;;;;;;;13.90;99.90;;;;;;5076535;28;20459;-64
2022/08/21 04:18:39;;;;;;;;;;;13.90;99.90;;;;;;5076880;28;19909;-64
2022/08/21 04:21:05;;;;;;;;;;;13.90;99.90;;;;;;5076846;28;19965;-64
2022/08/21 04:23:30;;;;;;;;;;;13.90;99.90;;;;;;5076789;28;19908;-64
2022/08/21 04:25:56;;;;;;;;;;;13.80;99.90;;;;;;5076755;28;19958;-64
2022/08/21 04:28:23;;;;;;;;;;;13.80;99.90;;;;;;5076708;28;19989;-64
2022/08/21 04:30:50;;;;;;;;;;;13.80;99.90;;;;;;5076426;28;19908;-64
2022/08/21 04:33:15;;;;;;;;;;;13.80;99.90;;;;;;5076627;28;19912;-64
2022/08/21 04:35:41;;;;;;;;;;;13.80;99.90;;;;;;5076495;28;19916;-64
2022/08/21 04:38:07;;;;;;;;;;;13.70;99.90;;;;;;5076525;28;20367;-64
2022/08/21 04:40:33;;;;;;;;;;;13.70;99.90;;;;;;5076236;28;19908;-64
2022/08/21 04:43:01;;;;;;;;;;;13.80;99.90;;;;;;5076490;28;19909;-65
2022/08/21 04:45:28;;;;;;;;;;;13.80;99.90;;;;;;5076133;28;19909;-64
2022/08/21 04:47:56;;;;;;;;;;;13.80;99.90;;;;;;5076001;28;19909;-64
2022/08/21 04:50:24;;;;;;;;;;;13.80;99.90;;;;;;5075680;28;19915;-64
2022/08/21 04:52:49;;;;;;;;;;;13.90;99.90;;;;;;5076231;28;19913;-64
2022/08/21 04:55:16;;;;;;;;;;;13.90;99.90;;;;;;5076213;28;20276;-64
2022/08/21 04:57:42;;;;;;;;;;;14.00;99.90;;;;;;5075810;28;20343;-64
2022/08/21 05:00:08;;;;;;;;;;;14.10;99.90;;;;;;5076113;28;19944;-64
2022/08/21 05:02:35;;;;;;;;;;;14.10;99.90;;;;;;5076079;28;19999;-64
2022/08/21 05:05:01;;;;;;;;;;;14.20;99.90;;;;;;5076065;28;19909;-64
2022/08/21 05:07:28;;;;;;;;;;;14.20;99.90;;;;;;5075760;28;20291;-64
2022/08/21 05:09:53;;;;;;;;;;;14.30;99.90;;;;;;5075791;28;20385;-64
2022/08/21 05:12:19;;;;;;;;;;;14.40;99.90;;;;;;5075691;28;19940;-65
2022/08/21 05:14:44;;;;;;;;;;;14.50;99.90;;;;;;5075599;28;19924;-64
2022/08/21 05:17:10;;;;;;;;;;;14.60;99.90;;;;;;5075328;28;20009;-64
2022/08/21 05:19:36;;;;;;;;;;;14.70;99.90;;;;;;5057893;28;19908;-64
2022/08/21 05:22:01;;;;;;;;;;;14.80;99.90;;;;;;5075654;28;19915;-64
2022/08/21 05:24:27;;;;;;;;;;;14.90;99.90;;;;;;5075623;28;20279;-64
2022/08/21 05:26:53;;;;;;;;;;;15.00;99.90;;;;;;5075339;28;20299;-63
2022/08/21 05:29:18;;;;;;;;;;;15.10;99.90;;;;;;5075566;28;19962;-64
2022/08/21 05:31:45;;;;;;;;;;;15.30;99.90;;;;;;5075214;28;19951;-64
2022/08/21 05:34:11;;;;;;;;;;;15.40;99.90;;;;;;5075183;28;19908;-64
2022/08/21 05:36:36;;;;;;;;;;;15.60;99.90;;;;;;5075339;28;20380;-64
2022/08/21 05:39:02;;;;;;;;;;;15.70;99.90;;;;;;5075358;28;19912;-64
2022/08/21 05:41:27;;;;;;;;;;;15.90;99.90;;;;;;5075306;28;20267;-64
2022/08/21 05:43:53;;;;;;;;;;;16.10;99.90;;;;;;5075038;28;20313;-64
2022/08/21 05:46:18;;;;;;;;;;;16.60;99.90;;;;;;5075226;28;19909;-64
2022/08/21 05:48:44;;;;;;;;;;;17.50;99.90;;;;;;5074908;28;20282;-64
2022/08/21 05:51:11;;;;;;;;;;;19.10;99.90;;;;;;5075079;28;19908;-64
2022/08/21 05:53:37;;;;;;;;;;;20.70;99.90;;;;;;5057244;28;20385;-65
2022/08/21 05:56:03;;;;;;;;;;;22.50;99.90;;;;;;5074903;28;19939;-65
2022/08/21 05:58:30;;;;;;;;;;;23.00;99.90;;;;;;5075024;28;19908;-65
2022/08/21 06:00:55;;;;;;;;;;;23.40;99.90;;;;;;5073833;28;19919;-65
2022/08/21 06:03:23;;;;;;;;;;;24.10;99.90;;;;;;5074630;28;20010;-65
2022/08/21 06:05:49;;;;;;;;;;;25.10;99.90;;;;;;5074879;28;20403;-66
2022/08/21 06:08:16;;;;;;;;;;;25.40;99.90;;;;;;5057076;28;19908;-65
2022/08/21 06:10:42;;;;;;;;;;;25.60;99.90;;;;;;5074760;28;19915;-65
2022/08/21 06:13:08;;;;;;;;;;;26.60;99.90;;;;;;5074395;28;19909;-65
2022/08/21 06:15:34;;;;;;;;;;;26.90;99.90;;;;;;5074189;28;19909;-65
2022/08/21 06:17:59;;;;;;;;;;;26.90;99.90;;;;;;5074489;28;19912;-65
2022/08/21 06:20:25;;;;;;;;;;;27.20;99.90;;;;;;5074585;28;20287;-65
2022/08/21 06:22:51;;;;;;;;;;;26.80;99.90;;;;;;5056520;28;19909;-65
2022/08/21 06:25:16;;;;;;;;;;;26.60;99.90;;;;;;5074206;28;19909;-65
2022/08/21 06:27:42;;;;;;;;;;;26.90;99.90;;;;;;5074404;28;19915;-65
2022/08/21 06:30:08;;;;;;;;;;;26.90;99.90;;;;;;5074365;28;19909;-65
2022/08/21 06:32:34;;;;;;;;;;;26.80;99.90;;;;;;5074374;28;19912;-65
2022/08/21 06:35:00;;;;;;;;;;;27.40;99.60;;;;;;5074289;28;19915;-65
2022/08/21 06:37:25;;;;;;;;;;;27.40;99.70;;;;;;5074206;28;19916;-65
2022/08/21 06:39:51;;;;;;;;;;;27.20;99.50;;;;;;5073974;28;20363;-65
2022/08/21 06:42:17;;;;;;;;;;;26.40;99.90;;;;;;5074198;28;19908;-65
2022/08/21 06:44:42;;;;;;;;;;;26.30;99.90;;;;;;5074211;28;19915;-65
2022/08/21 06:47:08;;;;;;;;;;;27.30;99.90;;;;;;5055914;28;20355;-65
2022/08/21 06:49:34;;;;;;;;;;;27.30;99.90;;;;;;5074111;28;19915;-65
2022/08/21 06:52:00;;;;;;;;;;;27.20;99.90;;;;;;5074057;28;19916;-65
2022/08/21 06:54:25;;;;;;;;;;;27.20;99.80;;;;;;5073761;28;20291;-65
2022/08/21 06:56:51;;;;;;;;;;;26.80;99.50;;;;;;5073915;28;19920;-65
2022/08/21 06:59:16;;;;;;;;;;;26.50;99.90;;;;;;5073789;28;19908;-63
2022/08/21 07:01:42;;;;;;;;;;;28.00;98.50;;;;;;5073968;28;19915;-63
2022/08/21 07:04:07;;;;;;;;;;;28.60;96.60;;;;;;5073953;28;20355;-63
2022/08/21 07:06:33;;;;;;;;;;;27.50;97.80;;;;;;5073881;28;19908;-63
2022/08/21 07:08:59;;;;;;;;;;;26.70;98.60;;;;;;5073601;28;20358;-65
2022/08/21 07:11:24;;;;;;;;;;;26.80;98.30;;;;;;5073429;28;19915;-65
2022/08/21 07:13:52;;;;;;;;;;;27.20;98.10;;;;;;5073830;28;19909;-65
2022/08/21 07:16:18;;;;;;;;;;;27.00;98.60;;;;;;5073229;28;19924;-65
2022/08/21 07:18:43;;;;;;;;;;;26.60;98.30;;;;;;5073749;28;20370;-65
2022/08/21 07:21:09;;;;;;;;;;;26.90;99.30;;;;;;5073729;28;20048;-65
2022/08/21 07:23:37;;;;;;;;;;;27.90;98.20;;;;;;5073721;28;19908;-65
2022/08/21 07:26:03;;;;;;;;;;;28.80;95.20;;;;;;5073716;28;20390;-65
2022/08/21 07:28:28;;;;;;;;;;;29.50;94.90;;;;;;5073659;28;19908;-63
2022/08/21 07:30:55;;;;;;;;;;;29.20;94.10;;;;;;5073377;28;19944;-63
2022/08/21 07:33:21;;;;;;;;;;;28.80;94.20;;;;;;5073621;28;20377;-64
2022/08/21 07:35:47;;;;;;;;;;;28.20;95.00;;;;;;5055661;28;19909;-63
2022/08/21 07:38:12;;;;;;;;;;;27.60;96.60;;;;;;5073276;28;19908;-63
2022/08/21 07:40:38;;;;;;;;;;;27.50;97.10;;;;;;5073324;28;20305;-63
2022/08/21 07:43:04;;;;;;;;;;;26.70;98.30;;;;;;5073544;28;19909;-63
2022/08/21 07:45:30;;;;;;;;;;;;;;;;;;5073524;28;19955;-63
2022/08/21 07:47:55;;;;;;;;;;;26.10;99.30;;;;;;5073427;28;19919;-63
2022/08/21 07:50:21;;;;;;;;;;;26.20;99.00;;;;;;5073508;28;19909;-63
2022/08/21 07:52:47;;;;;;;;;;;26.50;98.60;;;;;;5073519;28;20289;-63
2022/08/21 07:55:14;;;;;;;;;;;26.20;98.40;;;;;;5073447;28;20362;-63
2022/08/21 07:57:39;;;;;;;;;;;26.20;99.30;;;;;;5073098;28;20507;-64
2022/08/21 08:00:07;;;;;;;;;;;26.20;98.60;;;;;;5073378;28;19955;-64
2022/08/21 08:02:33;;;;;;;;;;;26.90;98.20;;;;;;5073365;28;19908;-63
2022/08/21 08:05:00;;;;;;;;;;;26.10;98.70;;;;;;5073332;28;19908;-63
2022/08/21 08:07:26;;;;;;;;;;;26.70;97.80;;;;;;5072963;28;20352;-64
2022/08/21 08:09:51;;;;;;;;;;;26.80;97.50;;;;;;5073063;28;19962;-64
2022/08/21 08:12:18;;;;;;;;;;;27.20;97.60;;;;;;5073251;28;19916;-63
2022/08/21 08:14:43;;;;;;;;;;;26.00;98.20;;;;;;5073270;28;19916;-63
2022/08/21 08:17:09;;;;;;;;;;;26.00;99.10;;;;;;5072688;28;19920;-64
2022/08/21 08:19:35;;;;;;;;;;;25.90;99.90;;;;;;5073204;28;20282;-63
2022/08/21 08:22:00;;;;;;;;;;;25.60;99.90;;;;;;5073184;28;19908;-63
2022/08/21 08:24:26;;;;;;;;;;;26.10;99.60;;;;;;5074732;28;19913;-63
2022/08/21 08:26:51;;;;;;;;;;;25.80;99.50;;;;;;5076488;28;20379;-64
2022/08/21 08:29:17;;;;;;;;;;;25.70;99.90;;;;;;5076735;28;19908;-64
2022/08/21 08:31:42;;;;;;;;;;;26.20;98.70;;;;;;5076436;28;19909;-64
2022/08/21 08:34:07;;;;;;;;;;;27.00;99.00;;;;;;5076618;28;19916;-64
2022/08/21 08:36:35;;;;;;;;;;;26.70;98.60;;;;;;5076267;28;19918;-64
2022/08/21 08:39:00;;;;;;;;;;;25.80;99.10;;;;;;5076308;28;20256;-64
2022/08/21 08:41:26;;;;;;;;;;;25.30;99.50;;;;;;5076467;28;19962;-64
2022/08/21 08:43:53;;;;;;;;;;;25.20;99.90;;;;;;5076175;28;20003;-64
2022/08/21 08:46:25;;;;;;;;;;;25.00;99.90;;;;;;5076417;28;20005;-64
2022/08/21 08:48:52;;;;;;;;;;;25.40;99.80;;;;;;5076341;28;19915;-64
2022/08/21 08:51:21;;;;;;;;;;;24.90;99.90;;;;;;5076261;28;19959;-64
2022/08/21 08:53:50;;;;;;;;;;;25.50;99.90;;;;;;5058486;28;19908;-64
2022/08/21 08:56:18;;;;;;;;;;;25.60;99.00;;;;;;5076179;28;19923;-64
2022/08/21 08:58:44;;;;;;;;;;;25.10;99.50;;;;;;5075920;28;19915;-64
2022/08/21 09:01:15;;;;;;;;;;;25.40;99.30;;;;;;5076121;28;19908;-64
2022/08/21 09:03:41;;;;;;;;;;;25.20;99.90;;;;;;5076066;28;19916;-64
2022/08/21 09:09:11;;;;;;;;;;;25.60;99.20;;;;;;5071079;28;19919;-65
2022/08/21 09:11:40;;;;;;;;;;;25.70;99.50;;;;;;5071175;28;19913;-65
2022/08/21 09:14:10;;;;;;;;;;;25.80;99.40;;;;;;5070886;28;19909;-65
2022/08/21 09:16:56;;;;;;;;;;;26.70;98.10;;;;;;5070820;28;19908;-65
2022/08/21 09:22:12;;;;;;;;;;;24.80;99.90;;;;;;5070975;28;19919;-64
2022/08/21 09:24:43;;;;;;;;;;;25.20;99.90;;;;;;5086443;28;20286;-65
2022/08/21 09:27:10;;;;;;;;;;;25.30;99.20;;;;;;5071154;28;20432;-64
2022/08/21 09:29:38;;;;;;;;;;;25.50;97.50;;;;;;5071004;28;19934;-64
2022/08/21 09:32:09;;;;;;;;;;;25.60;98.70;;;;;;5070768;28;19961;-65
2022/08/21 09:34:35;;;;;;;;;;;25.80;97.90;;;;;;5071009;28;19919;-65
2022/08/21 09:37:01;;;;;;;;;;;;;;;;;;5070951;28;19909;-65
2022/08/21 09:39:29;;;;;;;;;;;24.20;99.10;;;;;;5070964;28;20298;-64
2022/08/21 09:41:56;;;;;;;;;;;24.70;99.90;;;;;;5070805;28;20021;-65
2022/08/21 09:44:27;;;;;;;;;;;24.40;99.90;;;;;;5070892;28;20293;-64
2022/08/21 09:46:52;;;;;;;;;;;25.00;99.10;;;;;;5070553;28;19909;-65
2022/08/21 09:49:26;;;;;;;;;;;25.70;98.30;;;;;;5070701;28;20282;-65
2022/08/21 09:51:53;;;;;;;;;;;26.40;97.10;;;;;;5070726;28;19912;-65
2022/08/21 09:54:21;;;;;;;;;;;26.90;97.00;;;;;;5070340;28;19935;-65
2022/08/21 09:59:52;;;;;;;;;;;27.00;94.80;;;;;;5069941;28;19912;-64
2022/08/21 10:02:33;;;;;;;;;;;25.80;96.40;;;;;;5070170;28;19909;-64
2022/08/21 10:05:00;;;;;;;;;;;25.60;97.90;;;;;;5070057;28;19909;-65
2022/08/21 10:07:27;;;;;;;;;;;25.20;97.60;;;;;;5070289;28;19913;-65
2022/08/21 10:10:13;;;;;;;;;;;25.60;98.70;;;;;;5070323;28;20383;-65
2022/08/21 10:12:44;;;;;;;;;;;26.10;97.40;;;;;;5082988;28;19908;-65
2022/08/21 10:15:17;;;;;;;;;;;25.80;96.40;;;;;;5070086;28;20378;-65
2022/08/21 10:18:02;;;;;;;;;;;25.50;96.60;;;;;;5085490;28;19908;-65
2022/08/21 10:20:36;;;;;;;;;;;25.30;96.10;;;;;;5076871;28;20282;-65
2022/08/21 10:23:21;;;;;;;;;;;25.00;96.90;;;;;;5090267;28;19908;-64
2022/08/21 10:25:51;;;;;;;;;;;24.70;96.50;;;;;;5089861;28;19931;-65
2022/08/21 10:28:20;;;;;;;;;;;25.60;97.40;;;;;;5090212;28;19908;-64
2022/08/21 10:30:51;;;;;;;;;;;26.00;93.80;;;;;;5090154;28;20363;-65
2022/08/21 10:33:37;;;;;;;;;;;26.10;93.60;;;;;;5077327;28;20017;-65
2022/08/21 10:36:08;;;;;;;;;;;26.00;94.20;;;;;;5076269;28;20011;-65
2022/08/21 10:38:54;;;;;;;;;;;26.00;94.20;;;;;;5076269;28;19909;-65
2022/08/21 10:41:39;;;;;;;;;;;26.30;93.60;;;;;;5076171;28;19951;-65
2022/08/21 10:44:12;;;;;;;;;;;26.50;92.80;;;;;;5076048;28;19959;-65
2022/08/21 10:46:45;;;;;;;;;;;26.60;93.20;;;;;;5076360;28;19978;-65
2022/08/21 10:49:31;;;;;;;;;;;26.20;92.90;;;;;;5076338;28;20325;-65
2022/08/21 10:52:16;;;;;;;;;;;25.80;93.40;;;;;;5075967;28;20026;-65
2022/08/21 10:54:52;;;;;;;;;;;25.90;94.20;;;;;;5075839;28;19909;-65
2022/08/21 10:57:22;;;;;;;;;;;26.20;93.10;;;;;;5057964;28;20333;-65
2022/08/21 10:59:51;;;;;;;;;;;26.40;92.70;;;;;;5075811;28;19999;-65
2022/08/21 11:02:36;;;;;;;;;;;26.20;91.40;;;;;;5075810;28;19915;-64
2022/08/21 11:05:06;;;;;;;;;;;25.60;92.40;;;;;;5076052;28;20379;-65
2022/08/21 11:07:34;;;;;;;;;;;25.70;92.80;;;;;;5075783;28;20468;-65
2022/08/21 11:10:03;;;;;;;;;;;25.60;94.10;;;;;;5075888;28;19915;-65
2022/08/21 11:12:34;;;;;;;;;;;26.20;92.70;;;;;;5075937;28;19909;-65
2022/08/21 11:15:05;;;;;;;;;;;26.00;92.10;;;;;;5075877;28;19913;-65
2022/08/21 11:17:36;;;;;;;;;;;25.70;92.20;;;;;;5075493;28;20003;-65
2022/08/21 11:20:09;;;;;;;;;;;25.50;92.30;;;;;;5075445;28;19956;-65
2022/08/21 11:22:46;;;;;;;;;;;25.50;93.70;;;;;;5075697;28;19913;-65
2022/08/21 11:25:22;;;;;;;;;;;25.80;94.80;;;;;;5075657;28;19912;-64
2022/08/21 11:27:52;;;;;;;;;;;25.50;95.30;;;;;;5075561;28;19909;-64
2022/08/21 11:30:17;;;;;;;;;;;25.70;94.10;;;;;;5075239;28;20007;-65
2022/08/21 11:32:48;;;;;;;;;;;26.10;94.20;;;;;;5075205;28;19951;-65
2022/08/21 11:35:30;;;;;;;;;;;26.10;94.30;;;;;;5075525;28;20269;-65
2022/08/21 11:43:31;;;;;;;;;;;26.30;91.50;;;;;;5071166;28;20293;-65
2022/08/21 11:46:09;;;;;;;;;;;26.80;91.40;;;;;;5070980;28;19922;-65
2022/08/21 11:48:55;;;;;;;;;;;26.30;91.40;;;;;;5071183;28;20385;-65
2022/08/21 11:51:22;;;;;;;;;;;26.30;92.60;;;;;;5070802;28;19909;-65
2022/08/21 11:53:52;;;;;;;;;;;26.40;91.90;;;;;;5070781;28;19931;-65
2022/08/21 11:56:22;;;;;;;;;;;25.90;91.40;;;;;;5070974;28;20355;-65
2022/08/21 11:58:51;;;;;;;;;;;26.20;91.70;;;;;;5070927;28;19909;-65
2022/08/21 12:01:20;;;;;;;;;;;26.50;90.30;;;;;;5070808;28;19928;-65
2022/08/21 12:03:55;;;;;;;;;;;26.50;90.90;;;;;;5070842;28;20338;-65
2022/08/21 12:06:28;;;;;;;;;;;26.50;90.20;;;;;;5070818;28;19955;-65
2022/08/21 12:08:59;;;;;;;;;;;26.40;90.50;;;;;;5070751;28;19909;-65
2022/08/21 12:11:25;;;;;;;;;;;26.60;90.40;;;;;;5070699;28;19996;-65
2022/08/21 12:13:54;;;;;;;;;;;26.70;89.50;;;;;;5070651;28;19909;-65
2022/08/21 12:16:39;;;;;;;;;;;27.00;90.40;;;;;;5070620;28;19916;-65
2022/08/21 12:19:22;;;;;;;;;;;26.80;90.00;;;;;;5070254;28;19948;-65
2022/08/21 12:21:50;;;;;;;;;;;26.20;89.10;;;;;;5070140;28;19917;-65
2022/08/21 12:26:58;;;;;;;;;;;26.60;91.00;;;;;;5071057;28;19913;-65
2022/08/21 12:29:32;;;;;;;;;;;26.80;90.50;;;;;;5086628;28;19921;-65
2022/08/21 12:34:45;;;;;;;;;;;26.80;90.10;;;;;;5071014;28;19913;-66
2022/08/21 12:37:16;;;;;;;;;;;27.00;89.60;;;;;;5070984;28;19916;-66
2022/08/21 12:39:44;;;;;;;;;;;27.00;90.20;;;;;;5070886;28;19995;-66
2022/08/21 12:42:29;;;;;;;;;;;27.00;88.50;;;;;;5071108;28;19913;-66
2022/08/21 12:44:58;;;;;;;;;;;27.20;89.80;;;;;;5070929;28;19948;-65
2022/08/21 12:47:33;;;;;;;;;;;27.10;85.90;;;;;;5070932;28;20390;-66
2022/08/21 12:50:10;;;;;;;;;;;26.70;86.40;;;;;;5070715;28;19913;-66
2022/08/21 12:52:40;;;;;;;;;;;26.50;88.00;;;;;;5070748;28;19913;-65
2022/08/21 12:55:10;;;;;;;;;;;26.60;85.80;;;;;;5070664;28;19909;-65
2022/08/21 12:57:37;;;;;;;;;;;26.30;86.00;;;;;;5070573;28;19915;-66
2022/08/21 13:00:07;;;;;;;;;;;26.40;86.40;;;;;;5070749;28;20419;-66
2022/08/21 13:02:35;;;;;;;;;;;26.70;87.00;;;;;;5070791;28;20378;-65
2022/08/21 13:05:04;;;;;;;;;;;26.60;86.10;;;;;;5070437;28;19912;-65
2022/08/21 13:07:32;;;;;;;;;;;26.30;87.30;;;;;;5070357;28;19909;-65
2022/08/21 13:10:00;;;;;;;;;;;26.40;87.40;;;;;;5070545;28;19963;-65
2022/08/21 13:12:26;;;;;;;;;;;26.80;88.10;;;;;;5070466;28;20286;-65
2022/08/21 13:14:55;;;;;;;;;;;26.80;84.30;;;;;;5070485;28;20426;-65
2022/08/21 13:17:21;;;;;;;;;;;26.40;87.40;;;;;;5070411;28;19919;-65
2022/08/21 13:20:05;;;;;;;;;;;26.90;88.40;;;;;;5070324;28;19915;-65
2022/08/21 13:22:31;;;;;;;;;;;26.80;84.30;;;;;;5070282;28;19963;-65
2022/08/21 13:24:56;;;;;;;;;;;26.90;87.20;;;;;;5070208;28;19916;-65
2022/08/21 13:27:24;;;;;;;;;;;27.10;86.20;;;;;;5070219;28;19908;-65
2022/08/21 13:30:00;;;;;;;;;;;26.60;86.20;;;;;;5070091;28;19970;-65
2022/08/21 13:32:26;;;;;;;;;;;26.80;87.50;;;;;;5071655;28;19948;-65
2022/08/21 13:34:52;;;;;;;;;;;26.80;83.30;;;;;;5090330;28;19920;-66
2022/08/21 13:37:17;;;;;;;;;;;26.90;85.20;;;;;;5072222;28;19908;-65
2022/08/21 13:39:48;;;;;;;;;;;26.80;84.30;;;;;;5072197;28;19916;-65
2022/08/21 13:42:13;;;;;;;;;;;26.80;85.80;;;;;;5089835;28;19908;-65
2022/08/21 13:44:40;;;;;;;;;;;26.70;84.30;;;;;;5083914;28;19916;-65
2022/08/21 13:47:08;;;;;;;;;;;26.20;83.90;;;;;;5076344;28;19909;-65
2022/08/21 13:49:37;;;;;;;;;;;26.20;85.50;;;;;;5076358;28;19958;-65
2022/08/21 13:52:03;;;;;;;;;;;26.40;87.10;;;;;;5076194;28;20007;-65
2022/08/21 13:54:33;;;;;;;;;;;26.50;84.10;;;;;;5076379;28;20011;-66
2022/08/21 13:56:59;;;;;;;;;;;26.70;86.40;;;;;;5076157;28;19953;-66
2022/08/21 13:59:26;;;;;;;;;;;26.60;85.40;;;;;;5076089;28;19908;-65
2022/08/21 14:01:56;;;;;;;;;;;26.30;83.10;;;;;;5076317;28;19963;-65
2022/08/21 14:04:23;;;;;;;;;;;26.50;83.00;;;;;;5076309;28;20290;-65
2022/08/21 14:06:49;;;;;;;;;;;26.50;83.90;;;;;;5076205;28;20393;-65
2022/08/21 14:09:25;;;;;;;;;;;26.50;85.10;;;;;;5075913;28;19909;-65
2022/08/21 14:11:50;;;;;;;;;;;26.60;84.20;;;;;;5076147;28;19913;-65
2022/08/21 14:14:21;;;;;;;;;;;26.50;84.60;;;;;;5076034;28;19912;-65
2022/08/21 14:16:53;;;;;;;;;;;26.70;84.30;;;;;;5076067;28;19916;-65
2022/08/21 14:19:21;;;;;;;;;;;26.50;85.10;;;;;;5076028;28;19950;-65
2022/08/21 14:21:46;;;;;;;;;;;26.60;84.90;;;;;;5075978;28;19990;-65
2022/08/21 14:24:29;;;;;;;;;;;26.70;83.00;;;;;;5075641;28;19908;-65
2022/08/21 14:26:55;;;;;;;;;;;26.50;81.60;;;;;;5075846;28;19908;-65
2022/08/21 14:29:23;;;;;;;;;;;26.30;83.30;;;;;;5075745;28;19958;-65
2022/08/21 14:31:50;;;;;;;;;;;26.30;83.90;;;;;;5075772;28;19916;-65
2022/08/21 14:34:16;;;;;;;;;;;26.60;83.90;;;;;;5075271;28;20366;-65
2022/08/21 14:36:42;;;;;;;;;;;26.80;84.20;;;;;;5075418;28;19908;-65
2022/08/21 14:39:08;;;;;;;;;;;27.00;83.20;;;;;;5075355;28;20425;-65
2022/08/21 14:41:33;;;;;;;;;;;26.50;81.40;;;;;;5075241;28;19909;-65